sensor_id;sensor_type;location;lat;lon;timestamp;temperature;humidity
17348;DHT22;8791;50.876;4.342;2023-06-22T00:00:05;22.20;99.90
17348;DHT22;8791;50.876;4.342;2023-06-22T00:02:36;22.10;99.90
17348;DHT22;8791;50.876;4.342;2023-06-22T00:05:03;22.00;99.90
17348;DHT22;8791;50.876;4.342;2023-06-22T00:07:30;21.90;99.90
17348;DHT22;8791;50.876;4.342;2023-06-22T00:09:57;22.00;99.90
17348;DHT22;8791;50.876;4.342;2023-06-22T00:12:25;22.10;99.90
17348;DHT22;8791;50.876;4.342;2023-06-22T00:14:52;22.10;99.90
17348;DHT22;8791;50.876;4.342;2023-06-22T00:17:19;22.10;99.90
17348;DHT22;8791;50.876;4.342;2023-06-22T00:19:47;22.00;99.90
17348;DHT22;8791;50.876;4.342;2023-06-22T00:22:18;22.10;99.90
17348;DHT22;8791;50.876;4.342;2023-06-22T00:24:47;22.10;99.90
17348;DHT22;8791;50.876;4.342;2023-06-22T00:27:13;22.20;99.90
17348;DHT22;8791;50.876;4.342;2023-06-22T00:29:42;22.00;99.90
17348;DHT22;8791;50.876;4.342;2023-06-22T00:32:08;22.10;99.90
17348;DHT22;8791;50.876;4.342;2023-06-22T00:34:35;21.90;99.90
17348;DHT22;8791;50.876;4.342;2023-06-22T00:37:02;21.80;99.90
17348;DHT22;8791;50.876;4.342;2023-06-22T00:39:30;21.70;99.90
17348;DHT22;8791;50.876;4.342;2023-06-22T00:41:59;21.60;99.90
17348;DHT22;8791;50.876;4.342;2023-06-22T00:44:26;21.60;99.90
17348;DHT22;8791;50.876;4.342;2023-06-22T00:46:54;21.70;99.90
17348;DHT22;8791;50.876;4.342;2023-06-22T00:49:21;21.70;99.90
17348;DHT22;8791;50.876;4.342;2023-06-22T00:51:48;21.80;99.90
17348;DHT22;8791;50.876;4.342;2023-06-22T00:54:15;21.80;99.90
17348;DHT22;8791;50.876;4.342;2023-06-22T00:56:42;21.80;99.90
17348;DHT22;8791;50.876;4.342;2023-06-22T00:59:09;21.90;99.90
17348;DHT22;8791;50.876;4.342;2023-06-22T01:01:37;22.00;99.90
17348;DHT22;8791;50.876;4.342;2023-06-22T01:04:08;21.90;99.90
17348;DHT22;8791;50.876;4.342;2023-06-22T01:06:38;21.90;99.90
17348;DHT22;8791;50.876;4.342;2023-06-22T01:09:13;21.90;99.90
17348;DHT22;8791;50.876;4.342;2023-06-22T01:11:44;21.90;99.90
17348;DHT22;8791;50.876;4.342;2023-06-22T01:14:15;21.90;99.90
17348;DHT22;8791;50.876;4.342;2023-06-22T01:16:45;21.80;99.90
17348;DHT22;8791;50.876;4.342;2023-06-22T01:19:29;21.80;99.90
17348;DHT22;8791;50.876;4.342;2023-06-22T01:22:02;21.80;99.90
17348;DHT22;8791;50.876;4.342;2023-06-22T01:24:33;21.70;99.90
17348;DHT22;8791;50.876;4.342;2023-06-22T01:27:17;21.80;99.90
17348;DHT22;8791;50.876;4.342;2023-06-22T01:29:50;21.80;99.90
17348;DHT22;8791;50.876;4.342;2023-06-22T01:32:18;21.70;99.90
17348;DHT22;8791;50.876;4.342;2023-06-22T01:34:46;21.70;99.90
17348;DHT22;8791;50.876;4.342;2023-06-22T01:37:14;21.70;99.90
17348;DHT22;8791;50.876;4.342;2023-06-22T01:39:42;21.60;99.90
17348;DHT22;8791;50.876;4.342;2023-06-22T01:42:09;21.30;99.90
17348;DHT22;8791;50.876;4.342;2023-06-22T01:44:36;21.30;99.90
17348;DHT22;8791;50.876;4.342;2023-06-22T01:47:06;21.40;99.90
17348;DHT22;8791;50.876;4.342;2023-06-22T01:49:33;21.30;99.90
17348;DHT22;8791;50.876;4.342;2023-06-22T01:52:00;21.40;99.90
17348;DHT22;8791;50.876;4.342;2023-06-22T01:54:27;21.40;99.90
17348;DHT22;8791;50.876;4.342;2023-06-22T01:56:54;21.40;99.90
17348;DHT22;8791;50.876;4.342;2023-06-22T01:59:26;21.50;99.90
17348;DHT22;8791;50.876;4.342;2023-06-22T02:02:01;21.50;99.90
17348;DHT22;8791;50.876;4.342;2023-06-22T02:04:34;21.50;99.90
17348;DHT22;8791;50.876;4.342;2023-06-22T02:07:07;21.40;99.90
17348;DHT22;8791;50.876;4.342;2023-06-22T02:09:36;21.50;99.90
17348;DHT22;8791;50.876;4.342;2023-06-22T02:12:06;21.50;99.90
17348;DHT22;8791;50.876;4.342;2023-06-22T02:14:34;21.30;99.90
17348;DHT22;8791;50.876;4.342;2023-06-22T02:17:02;21.20;99.90
17348;DHT22;8791;50.876;4.342;2023-06-22T02:19:31;21.10;99.90
17348;DHT22;8791;50.876;4.342;2023-06-22T02:21:58;21.10;99.90
17348;DHT22;8791;50.876;4.342;2023-06-22T02:24:25;21.10;99.90
17348;DHT22;8791;50.876;4.342;2023-06-22T02:26:52;21.10;99.90
17348;DHT22;8791;50.876;4.342;2023-06-22T02:29:19;21.10;99.90
17348;DHT22;8791;50.876;4.342;2023-06-22T02:31:46;20.90;99.90
17348;DHT22;8791;50.876;4.342;2023-06-22T02:34:14;21.00;99.90
17348;DHT22;8791;50.876;4.342;2023-06-22T02:36:45;20.90;99.90
17348;DHT22;8791;50.876;4.342;2023-06-22T02:39:17;20.80;99.90
17348;DHT22;8791;50.876;4.342;2023-06-22T02:41:44;20.80;99.90
17348;DHT22;8791;50.876;4.342;2023-06-22T02:44:11;20.90;99.90
17348;DHT22;8791;50.876;4.342;2023-06-22T02:46:37;20.90;99.90
17348;DHT22;8791;50.876;4.342;2023-06-22T02:49:04;21.00;99.90
17348;DHT22;8791;50.876;4.342;2023-06-22T02:51:33;20.90;99.90
17348;DHT22;8791;50.876;4.342;2023-06-22T02:54:02;20.90;99.90
17348;DHT22;8791;50.876;4.342;2023-06-22T02:56:29;20.90;99.90
17348;DHT22;8791;50.876;4.342;2023-06-22T02:58:56;20.90;99.90
17348;DHT22;8791;50.876;4.342;2023-06-22T03:01:26;20.90;99.90
17348;DHT22;8791;50.876;4.342;2023-06-22T03:03:53;20.80;99.90
17348;DHT22;8791;50.876;4.342;2023-06-22T03:06:20;20.80;99.90
17348;DHT22;8791;50.876;4.342;2023-06-22T03:08:49;20.70;99.90
17348;DHT22;8791;50.876;4.342;2023-06-22T03:11:17;20.70;99.90
17348;DHT22;8791;50.876;4.342;2023-06-22T03:13:44;20.60;99.90
17348;DHT22;8791;50.876;4.342;2023-06-22T03:16:12;20.60;99.90
17348;DHT22;8791;50.876;4.342;2023-06-22T03:18:38;20.60;99.90
17348;DHT22;8791;50.876;4.342;2023-06-22T03:21:05;20.60;99.90
17348;DHT22;8791;50.876;4.342;2023-06-22T03:23:32;20.50;99.90
17348;DHT22;8791;50.876;4.342;2023-06-22T03:25:59;20.50;99.90
17348;DHT22;8791;50.876;4.342;2023-06-22T03:28:27;20.50;99.90
17348;DHT22;8791;50.876;4.342;2023-06-22T03:30:56;20.70;99.90
17348;DHT22;8791;50.876;4.342;2023-06-22T03:33:24;20.50;99.90
17348;DHT22;8791;50.876;4.342;2023-06-22T03:35:51;20.50;99.90
17348;DHT22;8791;50.876;4.342;2023-06-22T03:38:19;20.50;99.90
17348;DHT22;8791;50.876;4.342;2023-06-22T03:40:46;20.50;99.90
17348;DHT22;8791;50.876;4.342;2023-06-22T03:43:13;20.60;99.90
17348;DHT22;8791;50.876;4.342;2023-06-22T03:45:41;20.60;99.90
17348;DHT22;8791;50.876;4.342;2023-06-22T03:48:10;20.40;99.90
17348;DHT22;8791;50.876;4.342;2023-06-22T03:50:37;20.40;99.90
17348;DHT22;8791;50.876;4.342;2023-06-22T03:53:04;20.50;99.90
17348;DHT22;8791;50.876;4.342;2023-06-22T03:55:33;20.50;99.90
17348;DHT22;8791;50.876;4.342;2023-06-22T03:58:01;20.50;99.90
17348;DHT22;8791;50.876;4.342;2023-06-22T04:00:31;20.60;99.90
17348;DHT22;8791;50.876;4.342;2023-06-22T04:02:59;20.60;99.90
17348;DHT22;8791;50.876;4.342;2023-06-22T04:05:26;20.70;99.90
17348;DHT22;8791;50.876;4.342;2023-06-22T04:07:53;20.60;99.90
17348;DHT22;8791;50.876;4.342;2023-06-22T04:10:20;20.60;99.90
17348;DHT22;8791;50.876;4.342;2023-06-22T04:12:47;20.60;99.90
17348;DHT22;8791;50.876;4.342;2023-06-22T04:15:14;20.70;99.90
17348;DHT22;8791;50.876;4.342;2023-06-22T04:17:40;20.80;99.90
17348;DHT22;8791;50.876;4.342;2023-06-22T04:20:09;20.60;99.90
17348;DHT22;8791;50.876;4.342;2023-06-22T04:22:36;20.70;99.90
17348;DHT22;8791;50.876;4.342;2023-06-22T04:25:03;20.70;99.90
17348;DHT22;8791;50.876;4.342;2023-06-22T04:27:31;20.80;99.90
17348;DHT22;8791;50.876;4.342;2023-06-22T04:29:57;20.80;99.90
17348;DHT22;8791;50.876;4.342;2023-06-22T04:32:25;20.80;99.90
17348;DHT22;8791;50.876;4.342;2023-06-22T04:34:52;20.70;99.90
17348;DHT22;8791;50.876;4.342;2023-06-22T04:37:20;20.50;99.90
17348;DHT22;8791;50.876;4.342;2023-06-22T04:39:49;20.60;99.90
17348;DHT22;8791;50.876;4.342;2023-06-22T04:42:15;20.60;99.90
17348;DHT22;8791;50.876;4.342;2023-06-22T04:44:42;20.60;99.90
17348;DHT22;8791;50.876;4.342;2023-06-22T04:47:09;20.70;99.90
17348;DHT22;8791;50.876;4.342;2023-06-22T04:49:37;20.60;99.90
17348;DHT22;8791;50.876;4.342;2023-06-22T04:52:07;20.70;99.90
17348;DHT22;8791;50.876;4.342;2023-06-22T04:54:36;20.90;99.90
17348;DHT22;8791;50.876;4.342;2023-06-22T04:57:05;21.00;99.90
17348;DHT22;8791;50.876;4.342;2023-06-22T04:59:37;20.90;99.90
17348;DHT22;8791;50.876;4.342;2023-06-22T05:02:05;21.00;99.90
17348;DHT22;8791;50.876;4.342;2023-06-22T05:04:32;21.00;99.90
17348;DHT22;8791;50.876;4.342;2023-06-22T05:07:01;21.10;99.90
17348;DHT22;8791;50.876;4.342;2023-06-22T05:09:29;21.20;99.90
17348;DHT22;8791;50.876;4.342;2023-06-22T05:11:57;21.20;99.90
17348;DHT22;8791;50.876;4.342;2023-06-22T05:14:25;21.00;99.90
17348;DHT22;8791;50.876;4.342;2023-06-22T05:16:52;21.00;99.90
17348;DHT22;8791;50.876;4.342;2023-06-22T05:19:19;21.20;99.90
17348;DHT22;8791;50.876;4.342;2023-06-22T05:21:46;21.20;99.90
17348;DHT22;8791;50.876;4.342;2023-06-22T05:24:13;21.20;99.90
17348;DHT22;8791;50.876;4.342;2023-06-22T05:26:39;21.20;99.90
17348;DHT22;8791;50.876;4.342;2023-06-22T05:29:08;21.20;99.90
17348;DHT22;8791;50.876;4.342;2023-06-22T05:31:35;21.10;99.90
17348;DHT22;8791;50.876;4.342;2023-06-22T05:34:02;21.10;99.90
17348;DHT22;8791;50.876;4.342;2023-06-22T05:36:28;21.10;99.90
17348;DHT22;8791;50.876;4.342;2023-06-22T05:38:57;21.00;99.90
17348;DHT22;8791;50.876;4.342;2023-06-22T05:41:24;21.10;99.90
17348;DHT22;8791;50.876;4.342;2023-06-22T05:43:50;21.00;99.90
17348;DHT22;8791;50.876;4.342;2023-06-22T05:46:19;21.00;99.90
17348;DHT22;8791;50.876;4.342;2023-06-22T05:48:46;20.90;99.90
17348;DHT22;8791;50.876;4.342;2023-06-22T05:51:13;20.80;99.90
17348;DHT22;8791;50.876;4.342;2023-06-22T05:53:40;20.80;99.90
17348;DHT22;8791;50.876;4.342;2023-06-22T05:56:06;20.80;99.90
17348;DHT22;8791;50.876;4.342;2023-06-22T05:58:35;20.90;99.90
17348;DHT22;8791;50.876;4.342;2023-06-22T06:01:02;20.70;99.90
17348;DHT22;8791;50.876;4.342;2023-06-22T06:03:30;20.80;99.90
17348;DHT22;8791;50.876;4.342;2023-06-22T06:05:57;20.80;99.90
17348;DHT22;8791;50.876;4.342;2023-06-22T06:08:24;20.90;99.90
17348;DHT22;8791;50.876;4.342;2023-06-22T06:10:51;20.90;99.90
17348;DHT22;8791;50.876;4.342;2023-06-22T06:13:20;20.90;99.90
17348;DHT22;8791;50.876;4.342;2023-06-22T06:15:47;20.80;99.90
17348;DHT22;8791;50.876;4.342;2023-06-22T06:18:14;20.70;99.90
17348;DHT22;8791;50.876;4.342;2023-06-22T06:20:42;20.50;99.90
17348;DHT22;8791;50.876;4.342;2023-06-22T06:23:09;20.50;99.90
17348;DHT22;8791;50.876;4.342;2023-06-22T06:25:36;20.50;99.90
17348;DHT22;8791;50.876;4.342;2023-06-22T06:28:03;20.30;99.90
17348;DHT22;8791;50.876;4.342;2023-06-22T06:30:30;20.40;99.90
17348;DHT22;8791;50.876;4.342;2023-06-22T06:32:57;20.30;99.90
17348;DHT22;8791;50.876;4.342;2023-06-22T06:35:24;20.20;99.90
17348;DHT22;8791;50.876;4.342;2023-06-22T06:37:52;20.30;99.90
17348;DHT22;8791;50.876;4.342;2023-06-22T06:40:19;20.50;99.90
17348;DHT22;8791;50.876;4.342;2023-06-22T06:42:47;20.60;99.90
17348;DHT22;8791;50.876;4.342;2023-06-22T06:45:16;20.70;99.90
17348;DHT22;8791;50.876;4.342;2023-06-22T06:47:43;20.70;99.90
17348;DHT22;8791;50.876;4.342;2023-06-22T06:50:11;20.70;99.90
17348;DHT22;8791;50.876;4.342;2023-06-22T06:52:38;20.80;99.90
17348;DHT22;8791;50.876;4.342;2023-06-22T06:55:08;20.70;99.90
17348;DHT22;8791;50.876;4.342;2023-06-22T06:57:37;20.70;99.90
17348;DHT22;8791;50.876;4.342;2023-06-22T07:00:05;20.70;99.90
17348;DHT22;8791;50.876;4.342;2023-06-22T07:02:37;20.90;99.90
17348;DHT22;8791;50.876;4.342;2023-06-22T07:05:04;20.80;99.90
17348;DHT22;8791;50.876;4.342;2023-06-22T07:07:31;20.90;99.90
17348;DHT22;8791;50.876;4.342;2023-06-22T07:09:58;20.90;99.90
17348;DHT22;8791;50.876;4.342;2023-06-22T07:12:26;20.80;99.90
17348;DHT22;8791;50.876;4.342;2023-06-22T07:14:53;20.90;99.90
17348;DHT22;8791;50.876;4.342;2023-06-22T07:17:20;20.80;99.90
17348;DHT22;8791;50.876;4.342;2023-06-22T07:19:47;21.00;99.90
17348;DHT22;8791;50.876;4.342;2023-06-22T07:22:14;21.00;99.90
17348;DHT22;8791;50.876;4.342;2023-06-22T07:24:40;21.00;99.90
17348;DHT22;8791;50.876;4.342;2023-06-22T07:27:07;21.10;99.90
17348;DHT22;8791;50.876;4.342;2023-06-22T07:29:38;21.20;99.90
17348;DHT22;8791;50.876;4.342;2023-06-22T07:32:06;21.30;99.90
17348;DHT22;8791;50.876;4.342;2023-06-22T07:34:34;21.40;99.90
17348;DHT22;8791;50.876;4.342;2023-06-22T07:37:01;21.50;99.90
17348;DHT22;8791;50.876;4.342;2023-06-22T07:39:28;21.40;99.90
17348;DHT22;8791;50.876;4.342;2023-06-22T07:41:54;21.50;99.90
17348;DHT22;8791;50.876;4.342;2023-06-22T07:44:21;21.70;99.90
17348;DHT22;8791;50.876;4.342;2023-06-22T07:46:49;21.60;99.90
17348;DHT22;8791;50.876;4.342;2023-06-22T07:49:17;21.70;99.90
17348;DHT22;8791;50.876;4.342;2023-06-22T07:51:44;21.80;99.90
17348;DHT22;8791;50.876;4.342;2023-06-22T07:54:11;21.90;99.90
17348;DHT22;8791;50.876;4.342;2023-06-22T07:56:37;21.90;99.90
17348;DHT22;8791;50.876;4.342;2023-06-22T07:59:04;21.90;99.90
17348;DHT22;8791;50.876;4.342;2023-06-22T08:01:31;21.90;99.90
17348;DHT22;8791;50.876;4.342;2023-06-22T08:03:59;21.90;99.90
17348;DHT22;8791;50.876;4.342;2023-06-22T08:06:26;22.00;99.90
17348;DHT22;8791;50.876;4.342;2023-06-22T08:08:53;22.00;99.90
17348;DHT22;8791;50.876;4.342;2023-06-22T08:11:24;22.00;99.90
17348;DHT22;8791;50.876;4.342;2023-06-22T08:13:51;22.00;99.90
17348;DHT22;8791;50.876;4.342;2023-06-22T08:16:18;21.90;99.90
17348;DHT22;8791;50.876;4.342;2023-06-22T08:18:45;22.00;99.90
17348;DHT22;8791;50.876;4.342;2023-06-22T08:21:13;22.10;99.90
17348;DHT22;8791;50.876;4.342;2023-06-22T08:23:40;21.80;99.90
17348;DHT22;8791;50.876;4.342;2023-06-22T08:26:07;21.80;99.90
17348;DHT22;8791;50.876;4.342;2023-06-22T08:28:33;21.50;99.90
17348;DHT22;8791;50.876;4.342;2023-06-22T08:31:02;21.50;99.90
17348;DHT22;8791;50.876;4.342;2023-06-22T08:33:29;21.30;99.90
17348;DHT22;8791;50.876;4.342;2023-06-22T08:35:57;21.30;99.90
17348;DHT22;8791;50.876;4.342;2023-06-22T08:38:26;21.20;99.90
17348;DHT22;8791;50.876;4.342;2023-06-22T08:40:52;21.20;99.90
17348;DHT22;8791;50.876;4.342;2023-06-22T08:43:19;21.10;99.90
17348;DHT22;8791;50.876;4.342;2023-06-22T08:45:46;21.00;99.90
17348;DHT22;8791;50.876;4.342;2023-06-22T08:48:13;21.10;99.90
17348;DHT22;8791;50.876;4.342;2023-06-22T08:50:40;21.20;99.90
17348;DHT22;8791;50.876;4.342;2023-06-22T08:53:07;21.30;99.90
17348;DHT22;8791;50.876;4.342;2023-06-22T08:55:35;21.40;99.90
17348;DHT22;8791;50.876;4.342;2023-06-22T08:58:02;21.40;99.90
17348;DHT22;8791;50.876;4.342;2023-06-22T09:00:29;21.40;99.90
17348;DHT22;8791;50.876;4.342;2023-06-22T09:02:58;21.20;99.90
17348;DHT22;8791;50.876;4.342;2023-06-22T09:05:25;21.30;99.90
17348;DHT22;8791;50.876;4.342;2023-06-22T09:07:52;21.30;99.90
17348;DHT22;8791;50.876;4.342;2023-06-22T09:10:20;21.30;99.90
17348;DHT22;8791;50.876;4.342;2023-06-22T09:12:48;21.30;99.90
17348;DHT22;8791;50.876;4.342;2023-06-22T09:15:15;21.40;99.90
17348;DHT22;8791;50.876;4.342;2023-06-22T09:17:42;21.40;99.90
17348;DHT22;8791;50.876;4.342;2023-06-22T09:20:12;21.40;99.90
17348;DHT22;8791;50.876;4.342;2023-06-22T09:22:39;21.30;99.90
17348;DHT22;8791;50.876;4.342;2023-06-22T09:25:08;21.20;99.90
17348;DHT22;8791;50.876;4.342;2023-06-22T09:27:35;21.40;99.90
17348;DHT22;8791;50.876;4.342;2023-06-22T09:30:04;21.40;99.90
17348;DHT22;8791;50.876;4.342;2023-06-22T09:32:32;21.40;99.90
17348;DHT22;8791;50.876;4.342;2023-06-22T09:34:58;21.40;99.90
17348;DHT22;8791;50.876;4.342;2023-06-22T09:37:25;21.50;99.90
17348;DHT22;8791;50.876;4.342;2023-06-22T09:39:52;21.40;99.90
17348;DHT22;8791;50.876;4.342;2023-06-22T09:42:19;21.20;99.90
17348;DHT22;8791;50.876;4.342;2023-06-22T09:44:46;21.20;99.90
17348;DHT22;8791;50.876;4.342;2023-06-22T09:47:14;21.10;99.90
17348;DHT22;8791;50.876;4.342;2023-06-22T09:49:41;20.90;99.90
17348;DHT22;8791;50.876;4.342;2023-06-22T09:52:08;20.80;99.90
17348;DHT22;8791;50.876;4.342;2023-06-22T09:54:37;20.80;99.90
17348;DHT22;8791;50.876;4.342;2023-06-22T09:57:05;20.50;99.90
17348;DHT22;8791;50.876;4.342;2023-06-22T09:59:32;20.10;99.90
17348;DHT22;8791;50.876;4.342;2023-06-22T10:01:59;19.90;99.90
17348;DHT22;8791;50.876;4.342;2023-06-22T10:04:27;19.90;99.90
17348;DHT22;8791;50.876;4.342;2023-06-22T10:06:54;19.70;99.90
17348;DHT22;8791;50.876;4.342;2023-06-22T10:09:21;19.70;99.90
17348;DHT22;8791;50.876;4.342;2023-06-22T10:11:48;19.60;99.90
17348;DHT22;8791;50.876;4.342;2023-06-22T10:14:14;19.30;99.90
17348;DHT22;8791;50.876;4.342;2023-06-22T10:16:42;19.10;99.90
17348;DHT22;8791;50.876;4.342;2023-06-22T10:19:09;19.00;99.90
17348;DHT22;8791;50.876;4.342;2023-06-22T10:21:37;18.90;99.90
17348;DHT22;8791;50.876;4.342;2023-06-22T10:24:04;18.60;99.90
17348;DHT22;8791;50.876;4.342;2023-06-22T10:26:32;18.30;99.90
17348;DHT22;8791;50.876;4.342;2023-06-22T10:28:59;18.00;99.90
17348;DHT22;8791;50.876;4.342;2023-06-22T10:31:26;18.00;99.90
17348;DHT22;8791;50.876;4.342;2023-06-22T10:33:53;17.90;99.90
17348;DHT22;8791;50.876;4.342;2023-06-22T10:36:21;17.90;99.90
17348;DHT22;8791;50.876;4.342;2023-06-22T10:38:49;17.70;99.90
17348;DHT22;8791;50.876;4.342;2023-06-22T10:41:16;17.50;99.90
17348;DHT22;8791;50.876;4.342;2023-06-22T10:43:43;17.40;99.90
17348;DHT22;8791;50.876;4.342;2023-06-22T10:46:10;17.50;99.90
17348;DHT22;8791;50.876;4.342;2023-06-22T10:48:36;17.60;99.90
17348;DHT22;8791;50.876;4.342;2023-06-22T10:51:03;17.60;99.90
17348;DHT22;8791;50.876;4.342;2023-06-22T10:53:30;17.70;99.90
17348;DHT22;8791;50.876;4.342;2023-06-22T10:55:58;17.80;99.90
17348;DHT22;8791;50.876;4.342;2023-06-22T10:58:25;17.80;99.90
17348;DHT22;8791;50.876;4.342;2023-06-22T11:00:52;17.90;99.90
17348;DHT22;8791;50.876;4.342;2023-06-22T11:03:19;17.90;99.90
17348;DHT22;8791;50.876;4.342;2023-06-22T11:05:45;17.90;99.90
17348;DHT22;8791;50.876;4.342;2023-06-22T11:08:13;17.80;99.90
17348;DHT22;8791;50.876;4.342;2023-06-22T11:10:40;17.90;99.90
17348;DHT22;8791;50.876;4.342;2023-06-22T11:13:08;17.90;99.90
17348;DHT22;8791;50.876;4.342;2023-06-22T11:15:36;17.90;99.90
17348;DHT22;8791;50.876;4.342;2023-06-22T11:18:03;17.90;99.90
17348;DHT22;8791;50.876;4.342;2023-06-22T11:20:33;17.90;99.90
17348;DHT22;8791;50.876;4.342;2023-06-22T11:23:04;17.90;99.90
17348;DHT22;8791;50.876;4.342;2023-06-22T11:25:32;18.00;99.90
17348;DHT22;8791;50.876;4.342;2023-06-22T11:28:04;18.00;99.90
17348;DHT22;8791;50.876;4.342;2023-06-22T11:30:32;18.00;99.90
17348;DHT22;8791;50.876;4.342;2023-06-22T11:32:59;17.90;99.90
17348;DHT22;8791;50.876;4.342;2023-06-22T11:35:26;17.70;99.90
17348;DHT22;8791;50.876;4.342;2023-06-22T11:37:53;17.60;99.90
17348;DHT22;8791;50.876;4.342;2023-06-22T11:40:21;17.60;99.90
17348;DHT22;8791;50.876;4.342;2023-06-22T11:42:48;17.60;99.90
17348;DHT22;8791;50.876;4.342;2023-06-22T11:45:15;17.60;99.90
17348;DHT22;8791;50.876;4.342;2023-06-22T11:47:44;17.70;99.90
17348;DHT22;8791;50.876;4.342;2023-06-22T11:50:11;17.70;99.90
17348;DHT22;8791;50.876;4.342;2023-06-22T11:52:38;17.60;99.90
17348;DHT22;8791;50.876;4.342;2023-06-22T11:55:06;17.60;99.90
17348;DHT22;8791;50.876;4.342;2023-06-22T11:57:33;17.80;99.90
17348;DHT22;8791;50.876;4.342;2023-06-22T12:00:01;17.80;99.90
17348;DHT22;8791;50.876;4.342;2023-06-22T12:02:31;18.00;99.90
17348;DHT22;8791;50.876;4.342;2023-06-22T12:05:00;18.00;99.90
17348;DHT22;8791;50.876;4.342;2023-06-22T12:07:30;18.10;99.90
17348;DHT22;8791;50.876;4.342;2023-06-22T12:09:56;18.00;99.90
17348;DHT22;8791;50.876;4.342;2023-06-22T12:12:23;18.00;99.90
17348;DHT22;8791;50.876;4.342;2023-06-22T12:14:50;18.00;99.90
17348;DHT22;8791;50.876;4.342;2023-06-22T12:17:19;18.00;99.90
17348;DHT22;8791;50.876;4.342;2023-06-22T12:19:46;17.90;99.90
17348;DHT22;8791;50.876;4.342;2023-06-22T12:22:15;17.90;99.90
17348;DHT22;8791;50.876;4.342;2023-06-22T12:24:42;17.80;99.90
17348;DHT22;8791;50.876;4.342;2023-06-22T12:27:09;17.90;99.90
17348;DHT22;8791;50.876;4.342;2023-06-22T12:29:36;18.00;99.90
17348;DHT22;8791;50.876;4.342;2023-06-22T12:32:03;18.00;99.90
17348;DHT22;8791;50.876;4.342;2023-06-22T12:34:30;17.90;99.90
17348;DHT22;8791;50.876;4.342;2023-06-22T12:36:57;18.00;99.90
17348;DHT22;8791;50.876;4.342;2023-06-22T12:39:25;18.00;99.90
17348;DHT22;8791;50.876;4.342;2023-06-22T12:41:52;18.10;99.90
17348;DHT22;8791;50.876;4.342;2023-06-22T12:44:19;18.20;99.90
17348;DHT22;8791;50.876;4.342;2023-06-22T12:46:45;18.20;99.90
17348;DHT22;8791;50.876;4.342;2023-06-22T12:49:12;18.00;99.90
17348;DHT22;8791;50.876;4.342;2023-06-22T12:51:40;18.00;99.90
17348;DHT22;8791;50.876;4.342;2023-06-22T12:54:08;18.10;99.90
17348;DHT22;8791;50.876;4.342;2023-06-22T12:56:36;18.20;99.90
17348;DHT22;8791;50.876;4.342;2023-06-22T12:59:03;18.20;99.90
17348;DHT22;8791;50.876;4.342;2023-06-22T13:01:30;18.20;99.90
17348;DHT22;8791;50.876;4.342;2023-06-22T13:03:58;18.10;99.90
17348;DHT22;8791;50.876;4.342;2023-06-22T13:06:24;18.10;99.90
17348;DHT22;8791;50.876;4.342;2023-06-22T13:08:51;18.10;99.90
17348;DHT22;8791;50.876;4.342;2023-06-22T13:11:18;18.10;99.90
17348;DHT22;8791;50.876;4.342;2023-06-22T13:13:47;18.10;99.90
17348;DHT22;8791;50.876;4.342;2023-06-22T13:16:14;18.00;99.90
17348;DHT22;8791;50.876;4.342;2023-06-22T13:18:43;17.90;99.90
17348;DHT22;8791;50.876;4.342;2023-06-22T13:21:10;17.90;99.90
17348;DHT22;8791;50.876;4.342;2023-06-22T13:23:37;17.80;99.90
17348;DHT22;8791;50.876;4.342;2023-06-22T13:26:04;17.90;99.90
17348;DHT22;8791;50.876;4.342;2023-06-22T13:28:31;17.80;99.90
17348;DHT22;8791;50.876;4.342;2023-06-22T13:30:59;17.70;99.90
17348;DHT22;8791;50.876;4.342;2023-06-22T13:33:26;17.80;99.90
17348;DHT22;8791;50.876;4.342;2023-06-22T13:35:53;17.70;99.90
17348;DHT22;8791;50.876;4.342;2023-06-22T13:38:19;17.70;99.90
17348;DHT22;8791;50.876;4.342;2023-06-22T13:40:48;17.70;99.90
17348;DHT22;8791;50.876;4.342;2023-06-22T13:43:15;17.70;99.90
17348;DHT22;8791;50.876;4.342;2023-06-22T13:45:42;17.60;99.90
17348;DHT22;8791;50.876;4.342;2023-06-22T13:48:11;17.50;99.90
17348;DHT22;8791;50.876;4.342;2023-06-22T13:50:37;17.50;99.90
17348;DHT22;8791;50.876;4.342;2023-06-22T13:53:04;17.50;99.90
17348;DHT22;8791;50.876;4.342;2023-06-22T13:55:31;17.60;99.90
17348;DHT22;8791;50.876;4.342;2023-06-22T13:57:58;17.50;99.90
17348;DHT22;8791;50.876;4.342;2023-06-22T14:00:25;17.50;99.90
17348;DHT22;8791;50.876;4.342;2023-06-22T14:02:53;17.50;99.90
17348;DHT22;8791;50.876;4.342;2023-06-22T14:05:21;17.50;99.90
17348;DHT22;8791;50.876;4.342;2023-06-22T14:07:48;17.50;99.90
17348;DHT22;8791;50.876;4.342;2023-06-22T14:10:15;17.40;99.90
17348;DHT22;8791;50.876;4.342;2023-06-22T14:12:42;17.50;99.90
17348;DHT22;8791;50.876;4.342;2023-06-22T14:15:10;17.40;99.90
17348;DHT22;8791;50.876;4.342;2023-06-22T14:17:37;17.40;99.90
17348;DHT22;8791;50.876;4.342;2023-06-22T14:20:05;17.40;99.90
17348;DHT22;8791;50.876;4.342;2023-06-22T14:22:35;17.50;99.90
17348;DHT22;8791;50.876;4.342;2023-06-22T14:25:02;17.50;99.90
17348;DHT22;8791;50.876;4.342;2023-06-22T14:27:29;17.50;99.90
17348;DHT22;8791;50.876;4.342;2023-06-22T14:29:56;17.60;99.90
17348;DHT22;8791;50.876;4.342;2023-06-22T14:32:23;17.50;99.90
17348;DHT22;8791;50.876;4.342;2023-06-22T14:34:53;17.50;99.90
17348;DHT22;8791;50.876;4.342;2023-06-22T14:37:31;17.50;99.90
17348;DHT22;8791;50.876;4.342;2023-06-22T14:40:13;17.50;99.90
17348;DHT22;8791;50.876;4.342;2023-06-22T14:42:50;17.50;99.90
17348;DHT22;8791;50.876;4.342;2023-06-22T14:45:28;17.60;99.90
17348;DHT22;8791;50.876;4.342;2023-06-22T14:47:58;17.50;99.90
17348;DHT22;8791;50.876;4.342;2023-06-22T14:50:26;17.60;99.90
17348;DHT22;8791;50.876;4.342;2023-06-22T14:52:57;17.70;99.90
17348;DHT22;8791;50.876;4.342;2023-06-22T14:55:27;17.70;99.90
17348;DHT22;8791;50.876;4.342;2023-06-22T14:58:01;17.70;99.90
17348;DHT22;8791;50.876;4.342;2023-06-22T15:00:35;17.70;99.90
17348;DHT22;8791;50.876;4.342;2023-06-22T15:03:03;17.80;99.90
17348;DHT22;8791;50.876;4.342;2023-06-22T15:05:43;17.90;99.90
17348;DHT22;8791;50.876;4.342;2023-06-22T15:08:10;17.90;99.90
17348;DHT22;8791;50.876;4.342;2023-06-22T15:10:42;17.90;99.90
17348;DHT22;8791;50.876;4.342;2023-06-22T15:13:10;17.90;99.90
17348;DHT22;8791;50.876;4.342;2023-06-22T15:15:41;17.90;99.90
17348;DHT22;8791;50.876;4.342;2023-06-22T15:18:08;17.90;99.90
17348;DHT22;8791;50.876;4.342;2023-06-22T15:20:37;17.90;99.90
17348;DHT22;8791;50.876;4.342;2023-06-22T15:23:06;18.00;99.90
17348;DHT22;8791;50.876;4.342;2023-06-22T15:25:34;18.00;99.90
17348;DHT22;8791;50.876;4.342;2023-06-22T15:28:02;18.00;99.90
17348;DHT22;8791;50.876;4.342;2023-06-22T15:30:29;18.10;99.90
17348;DHT22;8791;50.876;4.342;2023-06-22T15:32:57;18.10;99.90
17348;DHT22;8791;50.876;4.342;2023-06-22T15:35:24;18.10;99.90
17348;DHT22;8791;50.876;4.342;2023-06-22T15:37:50;18.10;99.90
17348;DHT22;8791;50.876;4.342;2023-06-22T15:40:17;18.10;99.90
17348;DHT22;8791;50.876;4.342;2023-06-22T15:42:45;18.10;99.90
17348;DHT22;8791;50.876;4.342;2023-06-22T15:45:14;18.20;99.90
17348;DHT22;8791;50.876;4.342;2023-06-22T15:47:41;18.20;99.90